Time;durP1;ratioP1;P1;durP2;ratioP2;P2;SDS_P1;SDS_P2;PMS_P1;PMS_P2;Temp;Humidity;BMP_temperature;BMP_pressure;BME280_temperature;BME280_humidity;BME280_pressure;Samples;Min_cycle;Max_cycle;Signal;HPM_P1;HPM_P2
2023/11/17 00:00:41;;;;;;;;;9.00;8.00;;;;;13.97;100.00;101364.84;2105879;28;46473;-56
2023/11/17 00:01:41;;;;;;;;;6.00;5.00;;;;;13.97;100.00;101374.66;2105794;28;46103;-56
2023/11/17 00:02:42;;;;;;;;;8.00;8.00;;;;;13.93;100.00;101370.31;2096912;28;46503;-53
2023/11/17 00:03:42;;;;;;;;;7.33;7.00;;;;;13.94;100.00;101372.06;2096570;28;46604;-54
2023/11/17 00:04:43;;;;;;;;;6.00;6.00;;;;;13.94;100.00;101377.41;2106288;28;46642;-53
2023/11/17 00:05:43;;;;;;;;;7.33;7.33;;;;;13.95;100.00;101379.16;2105756;28;46310;-57
2023/11/17 00:06:45;;;;;;;;;5.50;5.50;;;;;13.96;100.00;101378.22;2105435;28;46333;-54
2023/11/17 00:07:45;;;;;;;;;7.75;7.00;;;;;13.96;100.00;101378.22;2105745;28;46617;-56
2023/11/17 00:08:46;;;;;;;;;8.00;8.00;;;;;13.97;100.00;101377.31;2102223;28;46209;-56
2023/11/17 00:09:46;;;;;;;;;13.00;13.00;;;;;14.00;100.00;101383.47;2102002;27;46456;-55
2023/11/17 00:10:46;;;;;;;;;11.00;10.00;;;;;14.00;100.00;101377.25;2105653;28;46784;-52
2023/11/17 00:11:46;;;;;;;;;9.00;8.75;;;;;14.02;100.00;101376.31;2102974;28;46534;-52
2023/11/17 00:12:47;;;;;;;;;12.75;12.75;;;;;14.03;100.00;101379.84;2105591;28;46253;-57
2023/11/17 00:13:49;;;;;;;;;10.67;8.67;;;;;14.03;100.00;101382.50;2105552;28;46700;-57
2023/11/17 00:14:49;;;;;;;;;7.25;7.25;;;;;14.03;100.00;101383.38;2105760;28;46377;-54
2023/11/17 00:15:51;;;;;;;;;9.67;8.00;;;;;14.04;100.00;101385.13;2105523;28;46705;-53
2023/11/17 00:16:51;;;;;;;;;7.25;6.75;;;;;14.02;100.00;101386.97;2105684;28;46418;-53
2023/11/17 00:17:52;;;;;;;;;9.00;7.00;;;;;14.05;100.00;101391.34;2105364;28;46610;-53
2023/11/17 00:18:52;;;;;;;;;6.00;6.00;;;;;14.05;100.00;101394.91;2100935;28;46471;-54
2023/11/17 00:19:52;;;;;;;;;5.33;5.33;;;;;14.04;100.00;101387.81;2105689;28;47577;-53
2023/11/17 00:20:54;;;;;;;;;5.33;5.33;;;;;14.05;100.00;101389.56;2105933;28;46719;-51
2023/11/17 00:21:54;;;;;;;;;8.25;7.00;;;;;14.05;100.00;101384.22;2105547;28;46784;-56
2023/11/17 00:22:54;;;;;;;;;6.75;6.75;;;;;14.05;100.00;101380.69;2096518;28;46572;-54
2023/11/17 00:23:55;;;;;;;;;6.75;6.75;;;;;14.05;100.00;101386.00;2096568;28;46586;-51
2023/11/17 00:24:55;;;;;;;;;5.00;5.00;;;;;14.03;100.00;101383.38;2104473;28;46603;-55
2023/11/17 00:25:56;;;;;;;;;8.00;6.50;;;;;14.00;100.00;101386.13;2105474;28;46133;-54
2023/11/17 00:26:57;;;;;;;;;6.75;6.75;;;;;14.02;100.00;101376.31;2105230;28;46161;-54
2023/11/17 00:27:57;;;;;;;;;5.00;5.00;;;;;14.02;100.00;101378.97;2105726;28;46827;-52
2023/11/17 00:28:57;;;;;;;;;4.33;4.00;;;;;14.02;100.00;101383.44;2104475;28;46509;-56
2023/11/17 00:29:58;;;;;;;;;6.25;6.25;;;;;14.03;100.00;101378.06;2105575;28;46385;-54
2023/11/17 00:30:58;;;;;;;;;7.67;5.00;;;;;14.03;100.00;101382.50;2105941;28;46248;-53
2023/11/17 00:31:58;;;;;;;;;5.00;5.00;;;;;14.04;100.00;101389.59;2105234;28;46597;-57
2023/11/17 00:32:59;;;;;;;;;5.00;5.00;;;;;14.03;100.00;101391.41;2095688;28;46592;-54
2023/11/17 00:33:59;;;;;;;;;6.00;4.67;;;;;14.04;100.00;101384.25;2089041;28;46622;-54
2023/11/17 00:35:00;;;;;;;;;5.00;5.00;;;;;14.05;100.00;101396.69;2094336;28;46474;-52
2023/11/17 00:36:01;;;;;;;;;5.00;5.00;;;;;14.04;100.00;101390.47;2096247;28;46503;-54
2023/11/17 00:37:07;;;;;;;;;4.67;4.67;;;;;14.03;100.00;101388.72;2105189;28;45526;-55
2023/11/17 00:38:07;;;;;;;;;4.75;4.75;;;;;14.02;100.00;101392.31;2108735;27;45918;-56
2023/11/17 00:39:08;;;;;;;;;6.00;6.00;;;;;14.01;100.00;101395.91;2104141;28;45865;-57
2023/11/17 00:40:10;;;;;;;;;5.00;5.00;;;;;14.03;100.00;101394.06;2105323;28;46483;-55
2023/11/17 00:41:10;;;;;;;;;6.00;5.00;;;;;14.02;100.00;101391.44;2096648;28;46632;-52
2023/11/17 00:42:12;;;;;;;;;5.00;5.00;;;;;14.03;100.00;101393.19;2087633;28;46379;-53
2023/11/17 00:43:12;;;;;;;;;5.75;5.75;;;;;14.02;100.00;101392.31;2091192;28;46506;-54
2023/11/17 00:44:13;;;;;;;;;5.00;5.00;;;;;14.02;100.00;101394.97;2104714;28;46220;-51
2023/11/17 00:45:13;;;;;;;;;4.00;3.67;;;;;14.02;100.00;101388.78;2096315;28;46828;-51
2023/11/17 00:46:13;;;;;;;;;5.00;5.00;;;;;14.02;100.00;101394.09;2097070;28;46863;-56
2023/11/17 00:47:15;;;;;;;;;6.67;6.00;;;;;14.03;100.00;101393.19;2105599;28;46579;-56
2023/11/17 00:48:17;;;;;;;;;8.60;7.60;;;;;14.03;100.00;101396.72;2104835;28;46088;-51
2023/11/17 00:49:17;;;;;;;;;7.00;6.75;;;;;14.03;100.00;101387.84;2097414;28;45285;-54
2023/11/17 00:50:19;;;;;;;;;8.00;5.50;;;;;14.04;100.00;101397.59;2104478;28;46835;-55
2023/11/17 00:51:19;;;;;;;;;5.33;5.33;;;;;14.03;100.00;101395.84;2105123;28;46825;-55
2023/11/17 00:52:20;;;;;;;;;4.67;4.67;;;;;14.02;100.00;101392.31;2105387;28;47016;-54
2023/11/17 00:53:25;;;;;;;;;4.67;4.67;;;;;14.03;100.00;101401.19;2105570;28;46509;-51
2023/11/17 00:54:26;;;;;;;;;4.75;4.75;;;;;14.02;100.00;101396.78;2105333;28;46485;-56
2023/11/17 00:55:28;;;;;;;;;4.33;4.33;;;;;14.01;100.00;101398.56;2105583;28;46915;-53
2023/11/17 00:56:29;;;;;;;;;3.25;3.25;;;;;14.02;100.00;101397.66;2105527;28;46881;-52
2023/11/17 00:57:32;;;;;;;;;4.33;4.00;;;;;14.00;100.00;101399.47;2105433;28;46954;-51
2023/11/17 00:58:32;;;;;;;;;4.00;4.00;;;;;13.98;100.00;101393.31;2102925;28;46937;-52
2023/11/17 00:59:32;;;;;;;;;4.00;4.00;;;;;13.97;100.00;101394.19;2102167;28;46818;-52
2023/11/17 01:00:33;;;;;;;;;3.67;3.67;;;;;13.98;100.00;101387.09;2105251;28;46624;-52
2023/11/17 01:01:34;;;;;;;;;2.33;2.33;;;;;13.99;100.00;101388.84;2105507;28;46827;-57
2023/11/17 01:02:34;;;;;;;;;4.00;4.00;;;;;13.99;100.00;101388.84;2105109;28;46737;-54
2023/11/17 01:03:36;;;;;;;;;5.00;5.00;;;;;13.98;100.00;101392.44;2105504;28;46424;-55
2023/11/17 01:04:36;;;;;;;;;4.50;3.50;;;;;13.98;100.00;101397.78;2105686;28;46944;-55
2023/11/17 01:05:37;;;;;;;;;3.00;3.00;;;;;13.96;100.00;101397.78;2105679;28;46613;-52
2023/11/17 01:06:37;;;;;;;;;4.00;4.00;;;;;13.95;100.00;101398.69;2105525;28;46593;-55
2023/11/17 01:07:38;;;;;;;;;4.00;4.00;;;;;13.94;100.00;101399.63;2105311;28;46231;-54
2023/11/17 01:08:39;;;;;;;;;3.75;3.25;;;;;13.94;100.00;101398.75;2103905;28;47113;-55
2023/11/17 01:09:41;;;;;;;;;5.00;5.00;;;;;13.94;100.00;101399.63;2105074;28;46450;-53
2023/11/17 01:10:44;;;;;;;;;2.50;2.50;;;;;13.94;100.00;101390.75;2105199;28;46381;-56
2023/11/17 01:11:45;;;;;;;;;3.75;3.75;;;;;13.92;100.00;101397.91;2091047;28;48517;-55
2023/11/17 01:12:45;;;;;;;;;4.00;4.00;;;;;13.89;100.00;101393.53;2095663;28;48288;-52
2023/11/17 01:13:46;;;;;;;;;3.67;3.67;;;;;13.96;100.00;101399.56;2085016;28;46645;-53
2023/11/17 01:14:47;;;;;;;;;4.00;3.00;;;;;13.94;100.00;101388.94;2079154;28;46543;-53
2023/11/17 01:15:47;;;;;;;;;5.00;5.00;;;;;13.94;100.00;101394.28;2072389;28;46305;-50
2023/11/17 01:16:48;;;;;;;;;4.00;3.33;;;;;13.97;100.00;101396.00;2079402;28;46282;-51
2023/11/17 01:17:48;;;;;;;;;3.00;3.00;;;;;13.95;100.00;101387.16;2083989;28;46421;-50
2023/11/17 01:18:50;;;;;;;;;4.00;4.00;;;;;13.97;100.00;101393.31;2080585;28;46756;-51
2023/11/17 01:19:50;;;;;;;;;4.00;3.00;;;;;13.96;100.00;101394.25;2082655;28;46374;-49
2023/11/17 01:20:50;;;;;;;;;4.00;3.67;;;;;13.96;100.00;101391.56;2087089;28;46398;-48
2023/11/17 01:21:51;;;;;;;;;2.67;2.67;;;;;13.96;100.00;101407.59;2085048;28;46553;-53
2023/11/17 01:22:52;;;;;;;;;2.33;2.33;;;;;13.94;100.00;101412.09;2079245;28;46956;-52
2023/11/17 01:23:52;;;;;;;;;2.33;2.33;;;;;13.93;100.00;101411.22;2085524;28;45571;-53
2023/11/17 01:24:53;;;;;;;;;3.00;3.00;;;;;13.94;100.00;101406.75;2081864;28;45635;-53
2023/11/17 01:25:54;;;;;;;;;3.33;3.00;;;;;13.93;100.00;101408.53;2087986;28;46619;-54
2023/11/17 01:26:54;;;;;;;;;4.00;4.00;;;;;13.92;100.00;101405.91;2081853;28;47578;-53
2023/11/17 01:27:55;;;;;;;;;3.67;3.67;;;;;13.93;100.00;101407.66;2081604;28;46514;-51
2023/11/17 01:28:56;;;;;;;;;4.00;4.00;;;;;13.91;100.00;101412.16;2079815;28;46698;-53
2023/11/17 01:29:56;;;;;;;;;3.33;3.33;;;;;13.89;100.00;101424.66;2081933;28;46331;-55
2023/11/17 01:30:56;;;;;;;;;3.00;3.00;;;;;13.90;100.00;101413.97;2083963;28;46235;-52
2023/11/17 01:31:57;;;;;;;;;3.00;3.00;;;;;13.86;100.00;101414.09;2080019;28;46646;-57
2023/11/17 01:32:57;;;;;;;;;3.67;3.67;;;;;13.83;100.00;101407.00;2080266;28;46389;-50
2023/11/17 01:33:57;;;;;;;;;5.00;4.00;;;;;13.82;100.00;101415.94;2084840;28;46859;-53
2023/11/17 01:34:58;;;;;;;;;6.67;4.67;;;;;13.81;100.00;101415.03;2085287;28;46603;-54
2023/11/17 01:35:59;;;;;;;;;4.00;3.00;;;;;13.86;100.00;101416.75;2080495;28;46582;-53
2023/11/17 01:36:59;;;;;;;;;6.00;4.00;;;;;13.87;100.00;101406.03;2087212;28;46800;-53
2023/11/17 01:38:01;;;;;;;;;4.00;4.00;;;;;13.82;100.00;101403.47;2086234;28;46242;-53
2023/11/17 01:39:01;;;;;;;;;2.00;2.00;;;;;13.87;100.00;101391.81;2079526;28;46911;-54
2023/11/17 01:40:05;;;;;;;;;3.33;3.00;;;;;13.87;100.00;101416.72;2077247;28;46398;-51
2023/11/17 01:41:05;;;;;;;;;4.25;4.00;;;;;13.86;100.00;101409.63;2086336;28;46170;-50
2023/11/17 01:42:05;;;;;;;;;5.00;5.00;;;;;13.87;100.00;101416.72;2087400;28;46490;-54
2023/11/17 01:43:11;;;;;;;;;3.33;3.33;;;;;13.88;100.00;101413.13;2066477;28;46325;-51
2023/11/17 01:44:11;;;;;;;;;3.00;3.00;;;;;13.88;100.00;101421.13;2071388;28;46843;-53
2023/11/17 01:45:11;;;;;;;;;3.00;3.00;;;;;13.87;100.00;101416.72;2083458;28;46085;-54
2023/11/17 01:46:12;;;;;;;;;3.00;3.00;;;;;13.87;100.00;101426.50;2101605;28;46697;-51
2023/11/17 01:47:12;;;;;;;;;5.00;3.00;;;;;13.86;100.00;101427.41;2105536;28;46603;-53
2023/11/17 01:48:13;;;;;;;;;5.00;3.00;;;;;13.86;100.00;101430.09;2104723;28;46443;-50
2023/11/17 01:49:15;;;;;;;;;3.00;3.00;;;;;13.84;100.00;101428.31;2105037;28;46571;-57
2023/11/17 01:50:15;;;;;;;;;4.00;4.00;;;;;13.84;100.00;101427.44;2103280;28;46712;-54
2023/11/17 01:51:16;;;;;;;;;3.67;2.67;;;;;13.84;100.00;101438.09;2105637;28;46478;-54
2023/11/17 01:52:18;;;;;;;;;4.67;3.00;;;;;13.83;100.00;101426.56;2105905;28;46302;-52
2023/11/17 01:53:18;;;;;;;;;2.50;2.50;;;;;13.83;100.00;101426.56;2104896;28;46294;-52
2023/11/17 01:54:19;;;;;;;;;2.50;2.50;;;;;13.83;100.00;101415.00;2104964;28;46389;-55
2023/11/17 01:55:20;;;;;;;;;3.00;3.00;;;;;13.83;100.00;101415.88;2097010;28;46674;-50
2023/11/17 01:56:20;;;;;;;;;3.00;2.33;;;;;13.82;100.00;101403.47;2090723;28;46822;-51
2023/11/17 01:57:21;;;;;;;;;3.33;2.33;;;;;13.83;100.00;101404.34;2096519;28;46832;-53
2023/11/17 01:58:24;;;;;;;;;2.75;2.75;;;;;13.82;100.00;101399.91;2103303;28;46876;-52
2023/11/17 01:59:24;;;;;;;;;3.25;3.25;;;;;13.82;100.00;101408.78;2104713;28;46206;-54
2023/11/17 02:00:24;;;;;;;;;4.33;3.00;;;;;13.82;100.00;101421.25;2105018;28;46400;-52
2023/11/17 02:01:27;;;;;;;;;4.00;4.00;;;;;13.81;100.00;101420.38;2105301;28;46489;-55
2023/11/17 02:02:27;;;;;;;;;4.00;4.00;;;;;13.81;100.00;101427.50;2095054;28;46331;-53
2023/11/17 02:03:28;;;;;;;;;7.00;4.00;;;;;13.81;100.00;101422.19;2096518;28;46839;-50
2023/11/17 02:04:30;;;;;;;;;2.67;2.67;;;;;13.82;100.00;101423.94;2104972;28;46600;-49
2023/11/17 02:05:32;;;;;;;;;2.00;2.00;;;;;13.82;100.00;101422.13;2096525;28;46627;-50
2023/11/17 02:06:54;;;;;;;;;3.00;3.00;;;;;13.84;100.00;101414.09;2096608;28;46393;-55
2023/11/17 02:08:13;;;;;;;;;2.75;2.00;;;;;13.83;100.00;101407.88;2104089;28;46714;-53
2023/11/17 02:09:24;;;;;;;;;1.25;1.25;;;;;13.83;100.00;101412.34;2101520;28;46497;-53
2023/11/17 02:10:54;;;;;;;;;2.75;2.50;;;;;13.84;100.00;101414.09;2104936;28;47349;-53
2023/11/17 02:12:23;;;;;;;;;5.00;2.50;;;;;13.79;100.00;101408.00;2088176;28;46629;-55
2023/11/17 02:13:26;;;;;;;;;4.50;2.00;;;;;13.84;100.00;101414.09;2093248;28;46579;-51
2023/11/17 02:14:36;;;;;;;;;3.00;3.00;;;;;13.86;100.00;101409.63;2104894;28;46682;-54
2023/11/17 02:15:39;;;;;;;;;1.00;1.00;;;;;13.87;100.00;101399.81;2096330;28;46562;-52
2023/11/17 02:16:42;;;;;;;;;2.00;2.00;;;;;13.83;100.00;101409.66;2096331;28;46283;-52
2023/11/17 02:17:45;;;;;;;;;1.75;1.75;;;;;13.86;100.00;101404.28;2104631;28;47009;-53
2023/11/17 02:18:49;;;;;;;;;2.00;2.00;;;;;13.86;100.00;101406.97;2101387;28;46733;-49
2023/11/17 02:19:52;;;;;;;;;1.75;1.00;;;;;13.87;100.00;101405.16;2103596;28;46621;-52
2023/11/17 02:20:53;;;;;;;;;2.00;2.00;;;;;13.87;100.00;101411.38;2105229;28;46918;-55
2023/11/17 02:22:02;;;;;;;;;1.67;1.67;;;;;13.89;100.00;101422.00;2104622;28;46851;-57
2023/11/17 02:23:10;;;;;;;;;3.50;2.00;;;;;13.88;100.00;101415.78;2100821;28;46401;-52
2023/11/17 02:24:13;;;;;;;;;0.50;0.50;;;;;13.88;100.00;101412.25;2104686;28;46729;-51
2023/11/17 02:25:33;;;;;;;;;1.75;1.75;;;;;13.87;100.00;101410.50;2105289;28;46440;-54
2023/11/17 02:26:54;;;;;;;;;1.00;1.00;;;;;13.87;100.00;101414.03;2104449;28;46413;-55
2023/11/17 02:28:00;;;;;;;;;2.50;2.50;;;;;13.83;100.00;101412.34;2104666;28;47042;-54
2023/11/17 02:29:07;;;;;;;;;1.50;1.50;;;;;13.87;100.00;101413.16;2104522;28;46372;-52
2023/11/17 02:30:08;;;;;;;;;2.00;2.00;;;;;13.86;100.00;101406.97;2104958;28;46902;-52
2023/11/17 02:31:15;;;;;;;;;2.25;2.00;;;;;13.85;100.00;101407.88;2104886;28;46616;-50
2023/11/17 02:32:24;;;;;;;;;2.00;2.00;;;;;13.85;100.00;101405.22;2104798;28;47062;-53
2023/11/17 02:33:30;;;;;;;;;2.00;2.00;;;;;13.86;100.00;101406.09;2105130;28;46752;-54
2023/11/17 02:34:31;;;;;;;;;2.00;2.00;;;;;13.86;100.00;101395.41;2104810;28;46657;-53
2023/11/17 02:35:32;;;;;;;;;2.00;2.00;;;;;13.76;100.00;101405.41;2104901;28;46524;-57
2023/11/17 02:36:33;;;;;;;;;2.00;1.75;;;;;13.76;100.00;101398.28;2101102;28;46787;-51
2023/11/17 02:37:33;;;;;;;;;1.00;1.00;;;;;13.75;100.00;101395.66;2104185;28;46305;-54
2023/11/17 02:38:34;;;;;;;;;1.00;1.00;;;;;13.81;100.00;101393.69;2104037;28;46770;-52
2023/11/17 02:39:36;;;;;;;;;2.33;2.00;;;;;13.84;100.00;101406.09;2104172;28;46627;-53
2023/11/17 02:40:38;;;;;;;;;2.50;2.00;;;;;13.84;100.00;101409.63;2105305;28;46894;-52
2023/11/17 02:41:43;;;;;;;;;3.25;2.00;;;;;13.86;100.00;101414.09;2105304;28;46298;-51
2023/11/17 02:42:43;;;;;;;;;2.00;2.00;;;;;13.86;100.00;101414.97;2097094;28;46729;-52
2023/11/17 02:43:43;;;;;;;;;1.33;1.33;;;;;13.77;100.00;101408.03;2095730;28;47082;-54
2023/11/17 02:44:44;;;;;;;;;2.00;2.00;;;;;13.86;100.00;101404.28;2094317;28;46227;-50
2023/11/17 02:45:46;;;;;;;;;2.00;2.00;;;;;13.87;100.00;101403.38;2104827;28;45983;-49
2023/11/17 02:46:49;;;;;;;;;2.25;2.25;;;;;13.87;100.00;101403.38;2104703;28;46259;-52
2023/11/17 02:47:50;;;;;;;;;2.00;2.00;;;;;13.88;100.00;101405.13;2104654;28;46362;-50
2023/11/17 02:48:51;;;;;;;;;1.00;1.00;;;;;13.88;100.00;101413.13;2105265;28;46820;-51
2023/11/17 02:50:00;;;;;;;;;3.00;2.00;;;;;13.88;100.00;101396.25;2105140;28;47034;-51
2023/11/17 02:51:17;;;;;;;;;1.25;1.00;;;;;13.88;100.00;101397.13;2104217;28;46334;-53
2023/11/17 02:52:32;;;;;;;;;2.00;2.00;;;;;13.87;100.00;101400.69;2104831;28;46449;-50
2023/11/17 02:53:35;;;;;;;;;1.00;1.00;;;;;13.88;100.00;101404.25;2104776;28;46156;-52
2023/11/17 02:54:37;;;;;;;;;1.00;1.00;;;;;13.89;100.00;101408.66;2104863;28;46132;-53
2023/11/17 02:55:38;;;;;;;;;3.00;3.00;;;;;13.88;100.00;101405.13;2103566;28;46249;-51
2023/11/17 02:56:40;;;;;;;;;2.75;2.00;;;;;13.89;100.00;101398.88;2104287;28;45603;-54
2023/11/17 02:57:42;;;;;;;;;1.50;1.00;;;;;13.89;100.00;101392.66;2103689;28;46714;-51
2023/11/17 02:58:43;;;;;;;;;1.00;1.00;;;;;13.89;100.00;101400.66;2104868;28;46321;-50
2023/11/17 02:59:45;;;;;;;;;2.00;2.00;;;;;13.89;100.00;101390.00;2104813;28;46873;-56
2023/11/17 03:00:51;;;;;;;;;1.50;1.50;;;;;13.90;100.00;101387.28;2104859;28;46535;-53
2023/11/17 03:01:52;;;;;;;;;1.25;1.00;;;;;13.90;100.00;101381.06;2103058;28;46724;-52
2023/11/17 03:02:53;;;;;;;;;2.25;1.00;;;;;13.91;100.00;101393.50;2104733;28;46420;-54
2023/11/17 03:03:53;;;;;;;;;2.33;2.00;;;;;13.89;100.00;101382.84;2104805;28;46690;-54
2023/11/17 03:04:56;;;;;;;;;1.00;1.00;;;;;13.90;100.00;101389.06;2104212;28;46657;-53
2023/11/17 03:05:59;;;;;;;;;2.00;2.00;;;;;13.90;100.00;101392.63;2105275;28;46359;-54
2023/11/17 03:07:01;;;;;;;;;3.00;3.00;;;;;13.89;100.00;101392.66;2103427;28;46522;-51
2023/11/17 03:08:02;;;;;;;;;1.75;1.75;;;;;13.89;100.00;101395.31;2101646;28;46454;-55
2023/11/17 03:09:04;;;;;;;;;2.00;2.00;;;;;13.88;100.00;101402.44;2104997;28;46629;-50
2023/11/17 03:10:05;;;;;;;;;2.00;2.00;;;;;13.83;100.00;101404.34;2104754;28;46375;-51
2023/11/17 03:11:06;;;;;;;;;1.25;1.25;;;;;13.82;100.00;101398.13;2103838;28;46882;-53
2023/11/17 03:12:07;;;;;;;;;2.67;1.67;;;;;13.81;100.00;101399.03;2104650;28;46668;-50
2023/11/17 03:13:13;;;;;;;;;2.67;1.67;;;;;13.82;100.00;101391.91;2104023;28;46611;-51
2023/11/17 03:14:15;;;;;;;;;3.00;2.00;;;;;13.87;100.00;101383.81;2105136;28;45703;-54
2023/11/17 03:15:15;;;;;;;;;1.25;1.25;;;;;13.87;100.00;101381.16;2096752;28;46753;-49
2023/11/17 03:16:23;;;;;;;;;1.33;1.33;;;;;13.88;100.00;101383.78;2104709;28;46431;-53
2023/11/17 03:17:23;;;;;;;;;2.00;1.00;;;;;13.89;100.00;101380.19;2100254;28;46451;-53
2023/11/17 03:18:26;;;;;;;;;3.33;1.00;;;;;13.90;100.00;101379.28;2104330;28;46477;-51
2023/11/17 03:19:30;;;;;;;;;1.00;1.00;;;;;13.89;100.00;101388.19;2104723;28;47013;-54
2023/11/17 03:20:31;;;;;;;;;2.75;1.75;;;;;13.87;100.00;101387.38;2104289;28;46302;-52
2023/11/17 03:21:31;;;;;;;;;1.75;1.75;;;;;13.90;100.00;101391.75;2096064;28;46532;-52
2023/11/17 03:22:32;;;;;;;;;1.00;1.00;;;;;13.89;100.00;101393.53;2095362;28;46758;-50
2023/11/17 03:23:32;;;;;;;;;1.00;1.00;;;;;13.89;100.00;101390.88;2096449;28;46617;-52
2023/11/17 03:24:34;;;;;;;;;0.67;0.67;;;;;13.89;100.00;101393.53;2102569;28;46866;-49
2023/11/17 03:25:39;;;;;;;;;1.00;1.00;;;;;13.90;100.00;101391.75;2104574;28;46726;-53
2023/11/17 03:26:39;;;;;;;;;2.00;2.00;;;;;13.90;100.00;101397.06;2104586;28;47176;-52
2023/11/17 03:27:39;;;;;;;;;1.67;1.67;;;;;13.89;100.00;101395.31;2104024;28;46266;-54
2023/11/17 03:28:40;;;;;;;;;1.67;1.67;;;;;13.89;100.00;101392.66;2104977;28;46505;-58
2023/11/17 03:29:40;;;;;;;;;1.00;1.00;;;;;13.89;100.00;101390.00;2099838;28;46478;-52
2023/11/17 03:30:41;;;;;;;;;1.33;1.33;;;;;13.89;100.00;101384.66;2088373;28;46396;-55
2023/11/17 03:31:48;;;;;;;;;1.00;1.00;;;;;13.89;100.00;101388.19;2086439;28;46021;-55
2023/11/17 03:32:52;;;;;;;;;1.25;1.25;;;;;13.91;100.00;101377.47;2095944;28;46493;-52
2023/11/17 03:33:52;;;;;;;;;2.00;2.00;;;;;13.90;100.00;101381.94;2104778;28;45815;-54
2023/11/17 03:34:53;;;;;;;;;0.00;0.00;;;;;13.90;100.00;101375.72;2104847;28;46952;-53
2023/11/17 03:35:55;;;;;;;;;3.67;2.00;;;;;13.90;100.00;101381.06;2104125;28;45672;-53
2023/11/17 03:37:01;;;;;;;;;1.25;1.00;;;;;13.93;100.00;101363.19;2104532;28;46538;-54
2023/11/17 03:38:01;;;;;;;;;2.25;2.00;;;;;13.93;100.00;101371.19;2103929;28;46616;-57
2023/11/17 03:39:02;;;;;;;;;2.00;2.00;;;;;13.93;100.00;101372.97;2104696;28;46347;-50
2023/11/17 03:40:07;;;;;;;;;1.25;1.25;;;;;13.94;100.00;101366.72;2105247;28;46628;-49
2023/11/17 03:41:07;;;;;;;;;2.75;1.50;;;;;13.93;100.00;101362.31;2100512;28;46980;-54
2023/11/17 03:42:15;;;;;;;;;0.00;0.00;;;;;13.94;100.00;101361.38;2104823;28;46592;-52
2023/11/17 03:43:18;;;;;;;;;2.50;2.50;;;;;13.92;100.00;101369.44;2088300;28;46332;-56
2023/11/17 03:44:21;;;;;;;;;2.00;2.00;;;;;13.91;100.00;101362.34;2095398;28;46898;-48
2023/11/17 03:45:21;;;;;;;;;2.50;2.00;;;;;13.93;100.00;101364.97;2104092;28;46581;-53
2023/11/17 03:46:22;;;;;;;;;2.00;2.00;;;;;13.92;100.00;101357.88;2104904;28;46732;-51
2023/11/17 03:47:22;;;;;;;;;2.00;2.00;;;;;13.90;100.00;101363.25;2092922;28;46371;-57
2023/11/17 03:48:22;;;;;;;;;1.33;1.33;;;;;13.90;100.00;101365.94;2078323;28;46983;-47
2023/11/17 03:49:25;;;;;;;;;2.33;2.33;;;;;13.91;100.00;101369.47;2080556;28;46322;-53
2023/11/17 03:50:26;;;;;;;;;2.00;1.50;;;;;13.90;100.00;101371.28;2096126;28;46763;-52
2023/11/17 03:51:26;;;;;;;;;1.00;1.00;;;;;13.89;100.00;101374.84;2101981;28;46763;-56
2023/11/17 03:52:26;;;;;;;;;1.00;1.00;;;;;13.90;100.00;101373.06;2104162;28;46784;-50
2023/11/17 03:53:27;;;;;;;;;2.00;1.00;;;;;13.90;100.00;101370.41;2101068;28;46503;-54
2023/11/17 03:54:29;;;;;;;;;2.50;2.50;;;;;13.90;100.00;101373.06;2104329;28;46455;-54
2023/11/17 03:55:29;;;;;;;;;1.50;1.50;;;;;13.89;100.00;101382.84;2096055;28;46164;-52
2023/11/17 03:56:30;;;;;;;;;3.00;1.67;;;;;13.90;100.00;101389.06;2095218;28;46650;-49
2023/11/17 03:57:30;;;;;;;;;4.00;3.00;;;;;13.89;100.00;101390.00;2102714;28;46415;-55
2023/11/17 03:58:30;;;;;;;;;3.00;3.00;;;;;13.89;100.00;101392.66;2104218;28;46413;-52
2023/11/17 03:59:31;;;;;;;;;2.67;2.67;;;;;13.89;100.00;101395.31;2100682;28;46652;-51
2023/11/17 04:00:33;;;;;;;;;2.00;2.00;;;;;13.88;100.00;101397.13;2104241;28;46466;-54
2023/11/17 04:01:33;;;;;;;;;1.00;1.00;;;;;13.89;100.00;101393.53;2104253;28;46677;-49
2023/11/17 04:02:34;;;;;;;;;1.00;1.00;;;;;13.89;100.00;101392.66;2104491;28;46519;-49
2023/11/17 04:03:35;;;;;;;;;2.00;2.00;;;;;13.89;100.00;101381.97;2104122;28;46384;-53
2023/11/17 04:04:35;;;;;;;;;2.00;2.00;;;;;13.87;100.00;101368.69;2104214;28;46154;-54
2023/11/17 04:05:35;;;;;;;;;2.00;2.00;;;;;13.86;100.00;101369.59;2104349;28;46746;-53
2023/11/17 04:06:36;;;;;;;;;1.67;1.67;;;;;13.87;100.00;101373.16;2104285;28;46427;-56
2023/11/17 04:07:36;;;;;;;;;3.00;3.00;;;;;13.84;100.00;101380.28;2104800;28;46763;-54
2023/11/17 04:08:37;;;;;;;;;2.00;2.00;;;;;13.85;100.00;101375.84;2106065;28;46638;-55
2023/11/17 04:09:37;;;;;;;;;2.00;2.00;;;;;13.85;100.00;101381.19;2103636;28;46840;-54
2023/11/17 04:10:37;;;;;;;;;1.00;1.00;;;;;13.85;100.00;101375.84;2090902;28;46142;-55
2023/11/17 04:11:39;;;;;;;;;1.00;1.00;;;;;13.84;100.00;101371.41;2088806;28;46199;-53
2023/11/17 04:12:40;;;;;;;;;2.00;2.00;;;;;13.84;100.00;101366.94;2097089;28;46312;-49
2023/11/17 04:13:42;;;;;;;;;1.00;1.00;;;;;13.84;100.00;101358.94;2088690;28;46862;-54
2023/11/17 04:14:43;;;;;;;;;2.25;2.25;;;;;13.82;100.00;101358.09;2089025;28;46886;-53
2023/11/17 04:15:44;;;;;;;;;1.00;1.00;;;;;13.83;100.00;101365.19;2104420;28;46757;-53
2023/11/17 04:16:46;;;;;;;;;1.00;1.00;;;;;13.83;100.00;101367.88;2105240;28;45767;-54
2023/11/17 04:17:47;;;;;;;;;1.25;1.25;;;;;13.83;100.00;101365.19;2105470;28;46416;-53
2023/11/17 04:18:47;;;;;;;;;1.00;1.00;;;;;13.82;100.00;101357.22;2093317;28;47023;-52
2023/11/17 04:19:48;;;;;;;;;2.00;1.00;;;;;13.82;100.00;101360.78;2096546;28;46456;-50
2023/11/17 04:20:48;;;;;;;;;1.67;1.67;;;;;13.83;100.00;101367.88;2105588;28;46633;-53
2023/11/17 04:21:49;;;;;;;;;1.33;1.33;;;;;13.81;100.00;101367.03;2105981;28;46740;-49
2023/11/17 04:22:49;;;;;;;;;1.33;1.33;;;;;13.76;100.00;101374.28;2095694;28;46617;-51
2023/11/17 04:23:50;;;;;;;;;1.67;1.33;;;;;13.81;100.00;101377.69;2096862;28;46593;-51
2023/11/17 04:24:51;;;;;;;;;2.50;2.25;;;;;13.82;100.00;101381.25;2106049;28;46388;-52
2023/11/17 04:25:52;;;;;;;;;1.25;1.00;;;;;13.83;100.00;101385.66;2105868;28;46955;-54
2023/11/17 04:26:52;;;;;;;;;2.00;2.00;;;;;13.84;100.00;101390.06;2105511;28;46521;-55
2023/11/17 04:27:52;;;;;;;;;3.00;2.00;;;;;13.75;100.00;101396.53;2099187;28;46597;-53
2023/11/17 04:28:53;;;;;;;;;2.00;2.00;;;;;13.72;100.00;101399.28;2102124;28;45289;-54
2023/11/17 04:29:53;;;;;;;;;2.00;2.00;;;;;13.73;100.00;101408.16;2105720;28;46764;-53
2023/11/17 04:30:54;;;;;;;;;0.00;0.00;;;;;13.72;100.00;101404.63;2105468;28;46567;-53
2023/11/17 04:31:54;;;;;;;;;1.33;1.33;;;;;13.72;100.00;101403.72;2105298;28;46403;-56
2023/11/17 04:32:55;;;;;;;;;1.00;1.00;;;;;13.71;100.00;101402.84;2104430;27;46505;-50
2023/11/17 04:33:55;;;;;;;;;5.00;2.00;;;;;13.71;100.00;101400.16;2105455;28;46395;-55
2023/11/17 04:34:55;;;;;;;;;1.67;1.67;;;;;13.71;100.00;101394.84;2105363;28;46202;-49
2023/11/17 04:35:56;;;;;;;;;2.00;2.00;;;;;13.70;100.00;101397.53;2105551;28;46222;-55
2023/11/17 04:36:57;;;;;;;;;1.33;1.33;;;;;13.70;100.00;101401.09;2105524;28;46295;-52
2023/11/17 04:37:57;;;;;;;;;3.00;1.33;;;;;13.70;100.00;101408.22;2105035;28;46603;-53
2023/11/17 04:38:58;;;;;;;;;3.00;3.00;;;;;13.71;100.00;101412.63;2105632;28;46315;-53
2023/11/17 04:40:01;;;;;;;;;3.00;3.00;;;;;13.71;100.00;101420.63;2105714;28;46883;-53
2023/11/17 04:41:02;;;;;;;;;2.50;2.00;;;;;13.70;100.00;101418.88;2105764;28;46355;-52
2023/11/17 04:42:03;;;;;;;;;1.67;1.67;;;;;13.71;100.00;101413.50;2105736;28;46189;-56
2023/11/17 04:43:06;;;;;;;;;3.00;1.25;;;;;13.71;100.00;101405.50;2105614;28;46914;-52
2023/11/17 04:44:07;;;;;;;;;2.75;2.75;;;;;13.70;100.00;101408.22;2106067;28;46371;-52
2023/11/17 04:45:10;;;;;;;;;1.00;1.00;;;;;13.70;100.00;101406.41;2105941;28;46198;-54